sensor_id;sensor_type;location;lat;lon;timestamp;temperature;humidity
19261;DHT22;9764;48.114;11.670;2023-04-28T00:00:08;22.20;95.60
19261;DHT22;9764;48.114;11.670;2023-04-28T00:02:37;22.20;95.60
19261;DHT22;9764;48.114;11.670;2023-04-28T00:05:06;22.20;95.60
19261;DHT22;9764;48.114;11.670;2023-04-28T00:07:35;22.20;95.60
19261;DHT22;9764;48.114;11.670;2023-04-28T00:10:04;22.20;95.60
19261;DHT22;9764;48.114;11.670;2023-04-28T00:12:34;22.20;95.60
19261;DHT22;9764;48.114;11.670;2023-04-28T00:15:03;22.20;95.90
19261;DHT22;9764;48.114;11.670;2023-04-28T00:17:32;22.20;95.60
19261;DHT22;9764;48.114;11.670;2023-04-28T00:20:00;22.20;95.60
19261;DHT22;9764;48.114;11.670;2023-04-28T00:22:29;22.20;95.60
19261;DHT22;9764;48.114;11.670;2023-04-28T00:24:57;22.20;95.60
19261;DHT22;9764;48.114;11.670;2023-04-28T00:27:26;22.20;95.60
19261;DHT22;9764;48.114;11.670;2023-04-28T00:29:55;22.20;95.60
19261;DHT22;9764;48.114;11.670;2023-04-28T00:32:24;22.20;95.60
19261;DHT22;9764;48.114;11.670;2023-04-28T00:34:52;22.20;95.70
19261;DHT22;9764;48.114;11.670;2023-04-28T00:37:20;22.20;95.70
19261;DHT22;9764;48.114;11.670;2023-04-28T00:39:53;22.20;95.60
19261;DHT22;9764;48.114;11.670;2023-04-28T00:42:22;22.20;95.60
19261;DHT22;9764;48.114;11.670;2023-04-28T00:44:50;22.20;95.60
19261;DHT22;9764;48.114;11.670;2023-04-28T00:47:21;22.20;95.60
19261;DHT22;9764;48.114;11.670;2023-04-28T00:49:51;22.20;95.60
19261;DHT22;9764;48.114;11.670;2023-04-28T00:52:19;22.20;96.10
19261;DHT22;9764;48.114;11.670;2023-04-28T00:54:48;22.10;95.70
19261;DHT22;9764;48.114;11.670;2023-04-28T00:57:17;22.20;95.70
19261;DHT22;9764;48.114;11.670;2023-04-28T00:59:45;22.20;95.70
19261;DHT22;9764;48.114;11.670;2023-04-28T01:02:13;22.10;95.70
19261;DHT22;9764;48.114;11.670;2023-04-28T01:04:46;22.10;95.70
19261;DHT22;9764;48.114;11.670;2023-04-28T01:07:15;22.10;95.60
19261;DHT22;9764;48.114;11.670;2023-04-28T01:09:43;22.10;95.70
19261;DHT22;9764;48.114;11.670;2023-04-28T01:12:17;22.10;95.70
19261;DHT22;9764;48.114;11.670;2023-04-28T01:14:48;22.10;95.70
19261;DHT22;9764;48.114;11.670;2023-04-28T01:17:17;22.10;95.70
19261;DHT22;9764;48.114;11.670;2023-04-28T01:19:47;22.10;95.70
19261;DHT22;9764;48.114;11.670;2023-04-28T01:22:16;22.10;95.60
19261;DHT22;9764;48.114;11.670;2023-04-28T01:24:47;22.10;95.70
19261;DHT22;9764;48.114;11.670;2023-04-28T01:27:15;22.10;95.80
19261;DHT22;9764;48.114;11.670;2023-04-28T01:29:43;22.10;95.80
19261;DHT22;9764;48.114;11.670;2023-04-28T01:32:12;22.10;95.80
19261;DHT22;9764;48.114;11.670;2023-04-28T01:34:40;22.10;95.80
19261;DHT22;9764;48.114;11.670;2023-04-28T01:37:08;22.10;95.70
19261;DHT22;9764;48.114;11.670;2023-04-28T01:39:37;22.10;95.80
19261;DHT22;9764;48.114;11.670;2023-04-28T01:42:06;22.10;95.90
19261;DHT22;9764;48.114;11.670;2023-04-28T01:44:35;22.10;95.90
19261;DHT22;9764;48.114;11.670;2023-04-28T01:47:03;22.10;95.90
19261;DHT22;9764;48.114;11.670;2023-04-28T01:49:34;22.10;95.90
19261;DHT22;9764;48.114;11.670;2023-04-28T01:52:02;22.10;95.80
19261;DHT22;9764;48.114;11.670;2023-04-28T01:54:31;22.00;95.90
19261;DHT22;9764;48.114;11.670;2023-04-28T01:56:59;22.10;95.90
19261;DHT22;9764;48.114;11.670;2023-04-28T01:59:29;22.00;95.80
19261;DHT22;9764;48.114;11.670;2023-04-28T02:01:58;22.10;95.90
19261;DHT22;9764;48.114;11.670;2023-04-28T02:04:26;22.00;95.80
19261;DHT22;9764;48.114;11.670;2023-04-28T02:06:55;22.10;95.90
19261;DHT22;9764;48.114;11.670;2023-04-28T02:09:23;22.00;95.80
19261;DHT22;9764;48.114;11.670;2023-04-28T02:11:51;22.10;95.80
19261;DHT22;9764;48.114;11.670;2023-04-28T02:14:20;22.00;95.70
19261;DHT22;9764;48.114;11.670;2023-04-28T02:16:51;22.00;95.60
19261;DHT22;9764;48.114;11.670;2023-04-28T02:19:19;22.10;95.80
19261;DHT22;9764;48.114;11.670;2023-04-28T02:21:47;22.00;95.70
19261;DHT22;9764;48.114;11.670;2023-04-28T02:24:16;22.00;95.80
19261;DHT22;9764;48.114;11.670;2023-04-28T02:26:44;22.00;95.80
19261;DHT22;9764;48.114;11.670;2023-04-28T02:29:12;22.00;95.70
19261;DHT22;9764;48.114;11.670;2023-04-28T02:31:41;22.00;95.70
19261;DHT22;9764;48.114;11.670;2023-04-28T02:34:13;22.00;95.70
19261;DHT22;9764;48.114;11.670;2023-04-28T02:36:41;22.00;95.80
19261;DHT22;9764;48.114;11.670;2023-04-28T02:39:10;22.00;95.80
19261;DHT22;9764;48.114;11.670;2023-04-28T02:41:38;22.00;95.70
19261;DHT22;9764;48.114;11.670;2023-04-28T02:44:07;22.00;95.60
19261;DHT22;9764;48.114;11.670;2023-04-28T02:46:35;22.00;95.60
19261;DHT22;9764;48.114;11.670;2023-04-28T02:49:03;22.00;95.50
19261;DHT22;9764;48.114;11.670;2023-04-28T02:51:33;22.00;95.50
19261;DHT22;9764;48.114;11.670;2023-04-28T02:54:01;22.00;95.50
19261;DHT22;9764;48.114;11.670;2023-04-28T02:56:30;22.00;95.50
19261;DHT22;9764;48.114;11.670;2023-04-28T02:58:59;22.00;95.60
19261;DHT22;9764;48.114;11.670;2023-04-28T03:01:28;22.00;95.60
19261;DHT22;9764;48.114;11.670;2023-04-28T03:03:56;22.00;95.60
19261;DHT22;9764;48.114;11.670;2023-04-28T03:06:25;22.00;95.50
19261;DHT22;9764;48.114;11.670;2023-04-28T03:08:55;22.00;95.60
19261;DHT22;9764;48.114;11.670;2023-04-28T03:11:23;22.00;95.60
19261;DHT22;9764;48.114;11.670;2023-04-28T03:13:52;22.00;95.60
19261;DHT22;9764;48.114;11.670;2023-04-28T03:16:20;22.00;95.60
19261;DHT22;9764;48.114;11.670;2023-04-28T03:18:49;22.00;95.60
19261;DHT22;9764;48.114;11.670;2023-04-28T03:21:18;21.90;95.50
19261;DHT22;9764;48.114;11.670;2023-04-28T03:23:46;22.00;95.70
19261;DHT22;9764;48.114;11.670;2023-04-28T03:26:16;21.90;95.60
19261;DHT22;9764;48.114;11.670;2023-04-28T03:28:44;21.90;95.40
19261;DHT22;9764;48.114;11.670;2023-04-28T03:31:13;21.90;95.40
19261;DHT22;9764;48.114;11.670;2023-04-28T03:33:41;21.90;95.40
19261;DHT22;9764;48.114;11.670;2023-04-28T03:36:11;21.90;95.80
19261;DHT22;9764;48.114;11.670;2023-04-28T03:38:40;21.90;95.40
19261;DHT22;9764;48.114;11.670;2023-04-28T03:41:08;21.90;95.40
19261;DHT22;9764;48.114;11.670;2023-04-28T03:43:57;21.90;95.40
19261;DHT22;9764;48.114;11.670;2023-04-28T03:46:32;21.90;95.40
19261;DHT22;9764;48.114;11.670;2023-04-28T03:49:01;21.90;95.40
19261;DHT22;9764;48.114;11.670;2023-04-28T03:51:31;21.90;95.40
19261;DHT22;9764;48.114;11.670;2023-04-28T03:54:00;21.90;95.30
19261;DHT22;9764;48.114;11.670;2023-04-28T03:56:28;21.90;95.30
19261;DHT22;9764;48.114;11.670;2023-04-28T03:59:00;21.90;95.50
19261;DHT22;9764;48.114;11.670;2023-04-28T04:01:29;21.90;95.40
19261;DHT22;9764;48.114;11.670;2023-04-28T04:03:57;21.90;95.40
19261;DHT22;9764;48.114;11.670;2023-04-28T04:06:26;21.90;95.40
19261;DHT22;9764;48.114;11.670;2023-04-28T04:08:54;21.90;95.30
19261;DHT22;9764;48.114;11.670;2023-04-28T04:11:22;21.90;95.30
19261;DHT22;9764;48.114;11.670;2023-04-28T04:13:51;21.90;95.30
19261;DHT22;9764;48.114;11.670;2023-04-28T04:16:22;21.90;95.40
19261;DHT22;9764;48.114;11.670;2023-04-28T04:18:53;21.90;95.40
19261;DHT22;9764;48.114;11.670;2023-04-28T04:21:30;21.90;95.40
19261;DHT22;9764;48.114;11.670;2023-04-28T04:23:59;21.90;95.40
19261;DHT22;9764;48.114;11.670;2023-04-28T04:26:28;21.90;95.40
19261;DHT22;9764;48.114;11.670;2023-04-28T04:28:56;21.90;95.80
19261;DHT22;9764;48.114;11.670;2023-04-28T04:31:26;21.90;95.40
19261;DHT22;9764;48.114;11.670;2023-04-28T04:33:54;21.90;95.30
19261;DHT22;9764;48.114;11.670;2023-04-28T04:36:23;21.90;95.30
19261;DHT22;9764;48.114;11.670;2023-04-28T04:38:51;21.90;95.30
19261;DHT22;9764;48.114;11.670;2023-04-28T04:41:21;21.90;95.70
19261;DHT22;9764;48.114;11.670;2023-04-28T04:43:58;21.90;95.40
19261;DHT22;9764;48.114;11.670;2023-04-28T04:46:36;21.90;95.40
19261;DHT22;9764;48.114;11.670;2023-04-28T04:49:04;21.90;95.30
19261;DHT22;9764;48.114;11.670;2023-04-28T04:51:32;21.90;95.30
19261;DHT22;9764;48.114;11.670;2023-04-28T04:54:01;22.00;95.30
19261;DHT22;9764;48.114;11.670;2023-04-28T04:56:29;22.00;95.30
19261;DHT22;9764;48.114;11.670;2023-04-28T04:58:58;21.90;95.30
19261;DHT22;9764;48.114;11.670;2023-04-28T05:01:43;21.90;95.20
19261;DHT22;9764;48.114;11.670;2023-04-28T05:04:12;22.00;95.20
19261;DHT22;9764;48.114;11.670;2023-04-28T05:06:40;21.90;95.60
19261;DHT22;9764;48.114;11.670;2023-04-28T05:09:09;22.00;95.60
19261;DHT22;9764;48.114;11.670;2023-04-28T05:11:38;21.90;95.10
19261;DHT22;9764;48.114;11.670;2023-04-28T05:14:07;21.90;95.10
19261;DHT22;9764;48.114;11.670;2023-04-28T05:16:35;22.00;95.30
19261;DHT22;9764;48.114;11.670;2023-04-28T05:19:24;22.00;95.30
19261;DHT22;9764;48.114;11.670;2023-04-28T05:21:53;22.00;95.30
19261;DHT22;9764;48.114;11.670;2023-04-28T05:24:22;22.00;95.30
19261;DHT22;9764;48.114;11.670;2023-04-28T05:26:51;22.00;95.30
19261;DHT22;9764;48.114;11.670;2023-04-28T05:29:20;22.00;95.30
19261;DHT22;9764;48.114;11.670;2023-04-28T05:31:48;22.00;95.30
19261;DHT22;9764;48.114;11.670;2023-04-28T05:34:19;22.00;95.40
19261;DHT22;9764;48.114;11.670;2023-04-28T05:36:49;22.00;95.30
19261;DHT22;9764;48.114;11.670;2023-04-28T05:39:18;22.00;95.20
19261;DHT22;9764;48.114;11.670;2023-04-28T05:41:47;22.00;95.20
19261;DHT22;9764;48.114;11.670;2023-04-28T05:44:15;22.00;95.30
19261;DHT22;9764;48.114;11.670;2023-04-28T05:46:45;22.00;95.30
19261;DHT22;9764;48.114;11.670;2023-04-28T05:49:13;22.00;95.30
19261;DHT22;9764;48.114;11.670;2023-04-28T05:51:42;22.00;95.30
19261;DHT22;9764;48.114;11.670;2023-04-28T05:54:12;22.00;95.30
19261;DHT22;9764;48.114;11.670;2023-04-28T05:56:45;22.00;95.30
19261;DHT22;9764;48.114;11.670;2023-04-28T05:59:14;22.00;95.30
19261;DHT22;9764;48.114;11.670;2023-04-28T06:01:42;22.00;95.40
19261;DHT22;9764;48.114;11.670;2023-04-28T06:04:11;22.00;95.40
19261;DHT22;9764;48.114;11.670;2023-04-28T06:06:40;22.00;95.40
19261;DHT22;9764;48.114;11.670;2023-04-28T06:09:08;22.00;95.40
19261;DHT22;9764;48.114;11.670;2023-04-28T06:11:38;22.00;95.40
19261;DHT22;9764;48.114;11.670;2023-04-28T06:14:06;22.00;95.50
19261;DHT22;9764;48.114;11.670;2023-04-28T06:16:37;22.00;95.40
19261;DHT22;9764;48.114;11.670;2023-04-28T06:19:06;22.00;95.40
19261;DHT22;9764;48.114;11.670;2023-04-28T06:21:34;22.00;95.50
19261;DHT22;9764;48.114;11.670;2023-04-28T06:24:03;22.00;95.40
19261;DHT22;9764;48.114;11.670;2023-04-28T06:26:31;22.00;95.40
19261;DHT22;9764;48.114;11.670;2023-04-28T06:29:02;22.00;95.40
19261;DHT22;9764;48.114;11.670;2023-04-28T06:31:30;22.00;95.40
19261;DHT22;9764;48.114;11.670;2023-04-28T06:33:58;22.00;95.40
19261;DHT22;9764;48.114;11.670;2023-04-28T06:36:27;22.00;95.50
19261;DHT22;9764;48.114;11.670;2023-04-28T06:38:56;22.00;95.50
19261;DHT22;9764;48.114;11.670;2023-04-28T06:41:24;22.00;95.50
19261;DHT22;9764;48.114;11.670;2023-04-28T06:43:55;22.00;95.40
19261;DHT22;9764;48.114;11.670;2023-04-28T06:46:28;22.00;95.40
19261;DHT22;9764;48.114;11.670;2023-04-28T06:48:57;22.00;95.40
19261;DHT22;9764;48.114;11.670;2023-04-28T06:51:25;22.00;95.40
19261;DHT22;9764;48.114;11.670;2023-04-28T06:53:55;22.00;95.50
19261;DHT22;9764;48.114;11.670;2023-04-28T06:56:23;22.00;95.40
19261;DHT22;9764;48.114;11.670;2023-04-28T06:58:53;22.00;95.40
19261;DHT22;9764;48.114;11.670;2023-04-28T07:01:22;22.00;95.40
19261;DHT22;9764;48.114;11.670;2023-04-28T07:03:52;21.90;95.30
19261;DHT22;9764;48.114;11.670;2023-04-28T07:06:20;22.00;95.40
19261;DHT22;9764;48.114;11.670;2023-04-28T07:08:49;22.00;95.40
19261;DHT22;9764;48.114;11.670;2023-04-28T07:11:17;22.00;95.40
19261;DHT22;9764;48.114;11.670;2023-04-28T07:13:46;22.00;95.40
19261;DHT22;9764;48.114;11.670;2023-04-28T07:16:16;22.00;95.40
19261;DHT22;9764;48.114;11.670;2023-04-28T07:18:45;22.00;95.40
19261;DHT22;9764;48.114;11.670;2023-04-28T07:21:14;22.00;95.40
19261;DHT22;9764;48.114;11.670;2023-04-28T07:23:43;22.00;95.40
19261;DHT22;9764;48.114;11.670;2023-04-28T07:26:12;22.00;95.40
19261;DHT22;9764;48.114;11.670;2023-04-28T07:28:43;22.00;95.40
19261;DHT22;9764;48.114;11.670;2023-04-28T07:31:11;22.00;95.40
19261;DHT22;9764;48.114;11.670;2023-04-28T07:33:39;22.00;95.50
19261;DHT22;9764;48.114;11.670;2023-04-28T07:36:08;22.00;95.50
19261;DHT22;9764;48.114;11.670;2023-04-28T07:38:38;22.00;95.40
19261;DHT22;9764;48.114;11.670;2023-04-28T07:41:06;22.00;95.40
19261;DHT22;9764;48.114;11.670;2023-04-28T07:43:37;22.00;95.70
19261;DHT22;9764;48.114;11.670;2023-04-28T07:46:08;22.00;95.40
19261;DHT22;9764;48.114;11.670;2023-04-28T07:48:36;22.00;95.40
19261;DHT22;9764;48.114;11.670;2023-04-28T07:51:05;22.00;95.40
19261;DHT22;9764;48.114;11.670;2023-04-28T07:53:33;22.00;95.50
19261;DHT22;9764;48.114;11.670;2023-04-28T07:56:03;22.00;95.40
19261;DHT22;9764;48.114;11.670;2023-04-28T07:58:31;22.00;95.50
19261;DHT22;9764;48.114;11.670;2023-04-28T08:01:00;22.00;95.50
19261;DHT22;9764;48.114;11.670;2023-04-28T08:03:28;22.00;95.40
19261;DHT22;9764;48.114;11.670;2023-04-28T08:05:57;22.00;95.50
19261;DHT22;9764;48.114;11.670;2023-04-28T08:08:26;22.00;95.60
19261;DHT22;9764;48.114;11.670;2023-04-28T08:10:54;22.00;95.60
19261;DHT22;9764;48.114;11.670;2023-04-28T08:13:24;22.00;95.60
19261;DHT22;9764;48.114;11.670;2023-04-28T08:15:54;22.00;95.60
19261;DHT22;9764;48.114;11.670;2023-04-28T08:18:23;22.00;95.50
19261;DHT22;9764;48.114;11.670;2023-04-28T08:20:52;22.00;95.60
19261;DHT22;9764;48.114;11.670;2023-04-28T08:23:20;22.00;95.60
19261;DHT22;9764;48.114;11.670;2023-04-28T08:25:49;22.00;95.60
19261;DHT22;9764;48.114;11.670;2023-04-28T08:28:17;22.00;95.60
19261;DHT22;9764;48.114;11.670;2023-04-28T08:30:47;22.00;95.60
19261;DHT22;9764;48.114;11.670;2023-04-28T08:33:15;22.00;95.70
19261;DHT22;9764;48.114;11.670;2023-04-28T08:35:44;22.00;95.60
19261;DHT22;9764;48.114;11.670;2023-04-28T08:38:12;22.00;95.60
19261;DHT22;9764;48.114;11.670;2023-04-28T08:40:43;22.00;95.60
19261;DHT22;9764;48.114;11.670;2023-04-28T08:43:12;22.10;95.60
19261;DHT22;9764;48.114;11.670;2023-04-28T08:45:42;22.00;95.60
19261;DHT22;9764;48.114;11.670;2023-04-28T08:48:17;22.10;95.60
19261;DHT22;9764;48.114;11.670;2023-04-28T08:50:49;22.00;95.60
19261;DHT22;9764;48.114;11.670;2023-04-28T08:53:22;22.10;95.60
19261;DHT22;9764;48.114;11.670;2023-04-28T08:55:54;22.10;95.60
19261;DHT22;9764;48.114;11.670;2023-04-28T08:58:24;22.10;95.60
19261;DHT22;9764;48.114;11.670;2023-04-28T09:00:53;22.10;95.60
19261;DHT22;9764;48.114;11.670;2023-04-28T09:03:22;22.10;95.60
19261;DHT22;9764;48.114;11.670;2023-04-28T09:05:51;22.10;96.00
19261;DHT22;9764;48.114;11.670;2023-04-28T09:08:19;22.10;95.60
19261;DHT22;9764;48.114;11.670;2023-04-28T09:10:48;22.10;95.60
19261;DHT22;9764;48.114;11.670;2023-04-28T09:13:32;22.10;95.60
19261;DHT22;9764;48.114;11.670;2023-04-28T09:16:01;22.20;95.60
19261;DHT22;9764;48.114;11.670;2023-04-28T09:18:31;22.20;95.60
19261;DHT22;9764;48.114;11.670;2023-04-28T09:21:04;22.20;95.60
19261;DHT22;9764;48.114;11.670;2023-04-28T09:23:33;22.20;95.50
19261;DHT22;9764;48.114;11.670;2023-04-28T09:26:03;22.20;95.60
19261;DHT22;9764;48.114;11.670;2023-04-28T09:28:33;22.20;95.70
19261;DHT22;9764;48.114;11.670;2023-04-28T09:31:02;22.20;95.60
19261;DHT22;9764;48.114;11.670;2023-04-28T09:33:32;22.20;95.50
19261;DHT22;9764;48.114;11.670;2023-04-28T09:36:00;22.20;95.60
19261;DHT22;9764;48.114;11.670;2023-04-28T09:38:29;22.20;95.60
19261;DHT22;9764;48.114;11.670;2023-04-28T09:40:58;22.20;95.60
19261;DHT22;9764;48.114;11.670;2023-04-28T09:43:29;22.20;95.60
19261;DHT22;9764;48.114;11.670;2023-04-28T09:45:59;22.30;95.50
19261;DHT22;9764;48.114;11.670;2023-04-28T09:48:30;22.30;95.40
19261;DHT22;9764;48.114;11.670;2023-04-28T09:51:01;22.30;95.30
19261;DHT22;9764;48.114;11.670;2023-04-28T09:53:30;22.40;95.30
19261;DHT22;9764;48.114;11.670;2023-04-28T09:56:00;22.50;95.20
19261;DHT22;9764;48.114;11.670;2023-04-28T09:58:30;22.50;95.30
19261;DHT22;9764;48.114;11.670;2023-04-28T10:00:59;22.50;95.30
19261;DHT22;9764;48.114;11.670;2023-04-28T10:03:29;22.60;95.20
19261;DHT22;9764;48.114;11.670;2023-04-28T10:06:00;22.60;95.20
19261;DHT22;9764;48.114;11.670;2023-04-28T10:08:29;22.70;95.20
19261;DHT22;9764;48.114;11.670;2023-04-28T10:10:57;22.70;95.60
19261;DHT22;9764;48.114;11.670;2023-04-28T10:13:27;22.70;95.20
19261;DHT22;9764;48.114;11.670;2023-04-28T10:15:55;22.70;95.10
19261;DHT22;9764;48.114;11.670;2023-04-28T10:18:24;22.80;95.10
19261;DHT22;9764;48.114;11.670;2023-04-28T10:20:57;22.80;95.10
19261;DHT22;9764;48.114;11.670;2023-04-28T10:23:49;22.90;95.00
19261;DHT22;9764;48.114;11.670;2023-04-28T10:26:26;22.90;95.10
19261;DHT22;9764;48.114;11.670;2023-04-28T10:29:00;22.90;94.90
19261;DHT22;9764;48.114;11.670;2023-04-28T10:31:29;23.00;95.00
19261;DHT22;9764;48.114;11.670;2023-04-28T10:34:20;23.00;95.00
19261;DHT22;9764;48.114;11.670;2023-04-28T10:36:49;23.10;95.00
19261;DHT22;9764;48.114;11.670;2023-04-28T10:39:20;23.10;95.00
19261;DHT22;9764;48.114;11.670;2023-04-28T10:41:48;23.10;94.90
19261;DHT22;9764;48.114;11.670;2023-04-28T10:44:40;23.20;95.00
19261;DHT22;9764;48.114;11.670;2023-04-28T10:47:10;23.20;95.00
19261;DHT22;9764;48.114;11.670;2023-04-28T10:50:03;23.20;95.00
19261;DHT22;9764;48.114;11.670;2023-04-28T10:52:48;23.20;95.00
19261;DHT22;9764;48.114;11.670;2023-04-28T10:55:31;23.20;95.00
19261;DHT22;9764;48.114;11.670;2023-04-28T10:58:31;23.20;95.00
19261;DHT22;9764;48.114;11.670;2023-04-28T11:01:30;23.30;95.00
19261;DHT22;9764;48.114;11.670;2023-04-28T11:04:05;23.30;94.90
19261;DHT22;9764;48.114;11.670;2023-04-28T11:06:38;23.40;95.00
19261;DHT22;9764;48.114;11.670;2023-04-28T11:12:10;23.50;95.00
19261;DHT22;9764;48.114;11.670;2023-04-28T11:14:39;23.50;94.90
19261;DHT22;9764;48.114;11.670;2023-04-28T11:17:08;23.50;94.90
19261;DHT22;9764;48.114;11.670;2023-04-28T11:19:40;23.50;94.90
19261;DHT22;9764;48.114;11.670;2023-04-28T11:22:13;23.50;95.00
19261;DHT22;9764;48.114;11.670;2023-04-28T11:24:54;23.50;95.10
19261;DHT22;9764;48.114;11.670;2023-04-28T11:27:25;23.50;95.10
19261;DHT22;9764;48.114;11.670;2023-04-28T11:29:54;23.50;95.00
19261;DHT22;9764;48.114;11.670;2023-04-28T11:32:26;23.50;95.10
19261;DHT22;9764;48.114;11.670;2023-04-28T11:34:55;23.50;95.10
19261;DHT22;9764;48.114;11.670;2023-04-28T11:37:24;23.50;95.10
19261;DHT22;9764;48.114;11.670;2023-04-28T11:39:53;23.50;95.20
19261;DHT22;9764;48.114;11.670;2023-04-28T11:42:21;23.50;95.10
19261;DHT22;9764;48.114;11.670;2023-04-28T11:44:53;23.50;95.20
19261;DHT22;9764;48.114;11.670;2023-04-28T11:47:28;23.50;95.20
19261;DHT22;9764;48.114;11.670;2023-04-28T11:49:59;23.50;95.20
19261;DHT22;9764;48.114;11.670;2023-04-28T11:52:28;23.50;95.30
19261;DHT22;9764;48.114;11.670;2023-04-28T11:54:57;23.50;95.20
19261;DHT22;9764;48.114;11.670;2023-04-28T11:57:27;23.50;95.30
19261;DHT22;9764;48.114;11.670;2023-04-28T12:00:12;23.50;95.30
19261;DHT22;9764;48.114;11.670;2023-04-28T12:02:45;23.50;95.30
19261;DHT22;9764;48.114;11.670;2023-04-28T12:05:14;23.50;95.30
19261;DHT22;9764;48.114;11.670;2023-04-28T12:07:43;23.50;95.30
19261;DHT22;9764;48.114;11.670;2023-04-28T12:10:12;23.50;95.30
19261;DHT22;9764;48.114;11.670;2023-04-28T12:12:43;23.50;95.40
19261;DHT22;9764;48.114;11.670;2023-04-28T12:15:19;23.50;95.40
19261;DHT22;9764;48.114;11.670;2023-04-28T12:17:49;23.50;95.50
19261;DHT22;9764;48.114;11.670;2023-04-28T12:20:35;23.50;95.50
19261;DHT22;9764;48.114;11.670;2023-04-28T12:23:04;23.50;95.50
19261;DHT22;9764;48.114;11.670;2023-04-28T12:25:42;23.50;95.50
19261;DHT22;9764;48.114;11.670;2023-04-28T12:28:11;23.60;95.90
19261;DHT22;9764;48.114;11.670;2023-04-28T12:30:41;23.60;95.40
19261;DHT22;9764;48.114;11.670;2023-04-28T12:33:21;23.50;95.50
19261;DHT22;9764;48.114;11.670;2023-04-28T12:35:50;23.50;95.50
19261;DHT22;9764;48.114;11.670;2023-04-28T12:38:20;23.50;95.50
19261;DHT22;9764;48.114;11.670;2023-04-28T12:40:49;23.50;95.50
19261;DHT22;9764;48.114;11.670;2023-04-28T12:43:17;23.50;95.60
19261;DHT22;9764;48.114;11.670;2023-04-28T12:45:48;23.50;95.60
19261;DHT22;9764;48.114;11.670;2023-04-28T12:48:16;23.50;95.70
19261;DHT22;9764;48.114;11.670;2023-04-28T12:50:45;23.50;95.70
19261;DHT22;9764;48.114;11.670;2023-04-28T12:53:13;23.50;95.60
19261;DHT22;9764;48.114;11.670;2023-04-28T12:55:41;23.50;95.60
19261;DHT22;9764;48.114;11.670;2023-04-28T12:58:10;23.50;95.50
19261;DHT22;9764;48.114;11.670;2023-04-28T13:00:38;23.60;95.60
19261;DHT22;9764;48.114;11.670;2023-04-28T13:03:09;23.60;95.50
19261;DHT22;9764;48.114;11.670;2023-04-28T13:05:38;23.60;95.60
19261;DHT22;9764;48.114;11.670;2023-04-28T13:08:06;23.60;95.70
19261;DHT22;9764;48.114;11.670;2023-04-28T13:10:34;23.60;96.00
19261;DHT22;9764;48.114;11.670;2023-04-28T13:13:02;23.60;95.60
19261;DHT22;9764;48.114;11.670;2023-04-28T13:15:31;23.60;95.50
19261;DHT22;9764;48.114;11.670;2023-04-28T13:17:59;23.60;95.80
19261;DHT22;9764;48.114;11.670;2023-04-28T13:20:29;23.60;95.50
19261;DHT22;9764;48.114;11.670;2023-04-28T13:22:57;23.60;95.00
19261;DHT22;9764;48.114;11.670;2023-04-28T13:25:25;23.60;94.80
19261;DHT22;9764;48.114;11.670;2023-04-28T13:27:54;23.60;94.50
19261;DHT22;9764;48.114;11.670;2023-04-28T13:30:22;23.60;94.40
19261;DHT22;9764;48.114;11.670;2023-04-28T13:32:50;23.60;94.30
19261;DHT22;9764;48.114;11.670;2023-04-28T13:35:21;23.70;94.30
19261;DHT22;9764;48.114;11.670;2023-04-28T13:37:51;23.70;94.00
19261;DHT22;9764;48.114;11.670;2023-04-28T13:40:27;23.70;93.90
19261;DHT22;9764;48.114;11.670;2023-04-28T13:42:56;23.70;93.90
19261;DHT22;9764;48.114;11.670;2023-04-28T13:45:25;23.60;93.80
19261;DHT22;9764;48.114;11.670;2023-04-28T13:47:54;23.60;93.60
19261;DHT22;9764;48.114;11.670;2023-04-28T13:50:22;23.60;94.00
19261;DHT22;9764;48.114;11.670;2023-04-28T13:52:53;23.60;93.60
19261;DHT22;9764;48.114;11.670;2023-04-28T13:55:21;23.60;93.70
19261;DHT22;9764;48.114;11.670;2023-04-28T13:57:53;23.60;93.70
19261;DHT22;9764;48.114;11.670;2023-04-28T14:00:22;23.60;93.70
19261;DHT22;9764;48.114;11.670;2023-04-28T14:02:50;23.50;93.80
19261;DHT22;9764;48.114;11.670;2023-04-28T14:05:19;23.50;93.70
19261;DHT22;9764;48.114;11.670;2023-04-28T14:07:48;23.50;93.70
19261;DHT22;9764;48.114;11.670;2023-04-28T14:10:18;23.50;93.70
19261;DHT22;9764;48.114;11.670;2023-04-28T14:12:46;23.50;93.70
19261;DHT22;9764;48.114;11.670;2023-04-28T14:15:15;23.50;93.70
19261;DHT22;9764;48.114;11.670;2023-04-28T14:17:44;23.50;93.70
19261;DHT22;9764;48.114;11.670;2023-04-28T14:20:12;23.50;93.60
19261;DHT22;9764;48.114;11.670;2023-04-28T14:22:40;23.40;93.60
19261;DHT22;9764;48.114;11.670;2023-04-28T14:25:09;23.40;93.60
19261;DHT22;9764;48.114;11.670;2023-04-28T14:27:39;23.40;93.60
19261;DHT22;9764;48.114;11.670;2023-04-28T14:30:08;23.40;93.60
19261;DHT22;9764;48.114;11.670;2023-04-28T14:32:36;23.40;93.60
19261;DHT22;9764;48.114;11.670;2023-04-28T14:35:06;23.40;93.60
19261;DHT22;9764;48.114;11.670;2023-04-28T14:37:35;23.30;93.60
19261;DHT22;9764;48.114;11.670;2023-04-28T14:40:05;23.30;93.60
19261;DHT22;9764;48.114;11.670;2023-04-28T14:42:34;23.30;93.60
19261;DHT22;9764;48.114;11.670;2023-04-28T14:45:06;23.30;93.60
19261;DHT22;9764;48.114;11.670;2023-04-28T14:47:36;23.30;93.60
19261;DHT22;9764;48.114;11.670;2023-04-28T14:50:05;23.30;93.60
19261;DHT22;9764;48.114;11.670;2023-04-28T14:52:34;23.30;93.70
19261;DHT22;9764;48.114;11.670;2023-04-28T14:55:03;23.30;93.60
19261;DHT22;9764;48.114;11.670;2023-04-28T14:57:32;23.30;93.70
19261;DHT22;9764;48.114;11.670;2023-04-28T15:00:01;23.30;93.60
19261;DHT22;9764;48.114;11.670;2023-04-28T15:02:33;23.30;93.70
19261;DHT22;9764;48.114;11.670;2023-04-28T15:05:03;23.30;93.70
19261;DHT22;9764;48.114;11.670;2023-04-28T15:07:32;23.20;93.60
19261;DHT22;9764;48.114;11.670;2023-04-28T15:10:01;23.20;93.60
19261;DHT22;9764;48.114;11.670;2023-04-28T15:12:29;23.20;93.60
19261;DHT22;9764;48.114;11.670;2023-04-28T15:14:58;23.20;93.60
19261;DHT22;9764;48.114;11.670;2023-04-28T15:17:27;23.20;93.60
19261;DHT22;9764;48.114;11.670;2023-04-28T15:19:56;23.20;93.70
19261;DHT22;9764;48.114;11.670;2023-04-28T15:22:25;23.20;93.70
19261;DHT22;9764;48.114;11.670;2023-04-28T15:24:53;23.20;93.70
19261;DHT22;9764;48.114;11.670;2023-04-28T15:27:22;23.20;93.70
19261;DHT22;9764;48.114;11.670;2023-04-28T15:29:51;23.20;93.70
19261;DHT22;9764;48.114;11.670;2023-04-28T15:32:19;23.20;93.70
19261;DHT22;9764;48.114;11.670;2023-04-28T15:34:47;23.20;93.70
19261;DHT22;9764;48.114;11.670;2023-04-28T15:37:39;23.10;93.70
19261;DHT22;9764;48.114;11.670;2023-04-28T15:40:11;23.10;93.80
19261;DHT22;9764;48.114;11.670;2023-04-28T15:42:39;23.10;93.70
19261;DHT22;9764;48.114;11.670;2023-04-28T15:45:11;23.10;93.70
19261;DHT22;9764;48.114;11.670;2023-04-28T15:47:39;23.10;93.60
19261;DHT22;9764;48.114;11.670;2023-04-28T15:50:09;23.10;93.70